Pagrindinis puslapis
METAR-TAF:

METAR-TAF

Oro uostai :

Šarm el Šeichas, Egiptas

platuma: 27-58N, ilguma: 034-23E, Aukštis: 50 m

Dabartinis oras

Ataskaita buvo paskelbta 1 valandą ir 40 minutes, ne 09:00 UTC
Vėjas 9 kt iš Šiaurės/Šiaurės Rytų
Temperatūra 30°C
Drėgmė 55%
Slėgis 1010 hPa
Matomumas 10 km arba daugiau
Mažai debesys ne aukštis 2500 ft

METAR: HESH 250900Z 02009KT 9999 FEW025 30/20 Q1010 NOSIG

Laikas: 12:40 (10:40 UTC)

Prognozė

Ataskaita buvo paskelbta 5 valandos ir 40 minutes, ne 05:00 UTC
Prognozė galioja nuo 25 metu 06 UTC su 26 metu 12 UTC
Vėjas 8 kt iš Šiaurės su gūsio iki 18 kt
Matomumas 10 km arba daugiau
Išsisklaidę debesys ne aukštis 2500 ft

TAF: HESH 250500Z 2506/2612 35008G18KT 9999 SCT025

Orai ataskaitas ir orų prognozės (METAR, TAF).

turimą stotys yra geltonos ir raudonos taškus žemėlapyje.

Perkelti pele per norėdami pamatyti stoties vardą.

Tada spustelėkite, norėdami matyti oro stebėjimo ir prognozės.

Norėdami pakeisti žemėlapį: spustelėkite ant žalios mygtukų su juodo kryžiaus žemyn,; žalią mygtuką su brūkšneliu, jei norite nutolinti; arba žalių rodyklių gretimoms žemėlapius.


METAR-TAF: